sensor_id;sensor_type;location;lat;lon;timestamp;P1;durP1;ratioP1;P2;durP2;ratioP2
33413;SDS011;60055;41.884;12.534;2024-01-15T00:00:24;45.88;;;30.55;;
33413;SDS011;60055;41.884;12.534;2024-01-15T00:02:49;50.58;;;31.08;;
33413;SDS011;60055;41.884;12.534;2024-01-15T00:05:15;47.95;;;29.80;;
33413;SDS011;60055;41.884;12.534;2024-01-15T00:07:40;45.83;;;31.00;;
33413;SDS011;60055;41.884;12.534;2024-01-15T00:10:06;47.13;;;30.20;;
33413;SDS011;60055;41.884;12.534;2024-01-15T00:12:32;47.30;;;29.80;;
33413;SDS011;60055;41.884;12.534;2024-01-15T00:14:57;47.20;;;30.23;;
33413;SDS011;60055;41.884;12.534;2024-01-15T00:17:23;45.45;;;29.77;;
33413;SDS011;60055;41.884;12.534;2024-01-15T00:19:48;48.42;;;30.23;;
33413;SDS011;60055;41.884;12.534;2024-01-15T00:22:14;45.22;;;28.88;;
33413;SDS011;60055;41.884;12.534;2024-01-15T00:24:39;42.50;;;29.05;;
33413;SDS011;60055;41.884;12.534;2024-01-15T00:27:05;41.28;;;27.65;;
33413;SDS011;60055;41.884;12.534;2024-01-15T00:29:30;42.67;;;28.17;;
33413;SDS011;60055;41.884;12.534;2024-01-15T00:31:56;42.08;;;28.55;;
33413;SDS011;60055;41.884;12.534;2024-01-15T00:34:22;43.85;;;28.25;;
33413;SDS011;60055;41.884;12.534;2024-01-15T00:36:47;37.80;;;26.50;;
33413;SDS011;60055;41.884;12.534;2024-01-15T00:39:13;43.15;;;27.95;;
33413;SDS011;60055;41.884;12.534;2024-01-15T00:41:39;41.50;;;27.60;;
33413;SDS011;60055;41.884;12.534;2024-01-15T00:44:04;37.42;;;25.88;;
33413;SDS011;60055;41.884;12.534;2024-01-15T00:46:30;38.83;;;26.27;;
33413;SDS011;60055;41.884;12.534;2024-01-15T00:48:56;39.75;;;25.95;;
33413;SDS011;60055;41.884;12.534;2024-01-15T00:51:21;44.22;;;26.17;;
33413;SDS011;60055;41.884;12.534;2024-01-15T00:53:47;39.05;;;24.50;;
33413;SDS011;60055;41.884;12.534;2024-01-15T00:56:13;40.78;;;25.75;;
33413;SDS011;60055;41.884;12.534;2024-01-15T00:58:38;40.28;;;25.05;;
33413;SDS011;60055;41.884;12.534;2024-01-15T01:01:04;40.50;;;25.83;;
33413;SDS011;60055;41.884;12.534;2024-01-15T01:03:30;38.08;;;25.65;;
33413;SDS011;60055;41.884;12.534;2024-01-15T01:05:55;35.45;;;24.63;;
33413;SDS011;60055;41.884;12.534;2024-01-15T01:08:21;38.20;;;25.52;;
33413;SDS011;60055;41.884;12.534;2024-01-15T01:10:46;36.42;;;23.95;;
33413;SDS011;60055;41.884;12.534;2024-01-15T01:13:12;37.03;;;24.88;;
33413;SDS011;60055;41.884;12.534;2024-01-15T01:15:37;34.97;;;24.80;;
33413;SDS011;60055;41.884;12.534;2024-01-15T01:18:03;40.15;;;25.95;;
33413;SDS011;60055;41.884;12.534;2024-01-15T01:20:32;37.97;;;24.83;;
33413;SDS011;60055;41.884;12.534;2024-01-15T01:22:58;35.47;;;25.20;;
33413;SDS011;60055;41.884;12.534;2024-01-15T01:25:23;36.35;;;23.90;;
33413;SDS011;60055;41.884;12.534;2024-01-15T01:27:49;39.88;;;25.67;;
33413;SDS011;60055;41.884;12.534;2024-01-15T01:30:14;39.95;;;25.42;;
33413;SDS011;60055;41.884;12.534;2024-01-15T01:32:40;37.05;;;24.65;;
33413;SDS011;60055;41.884;12.534;2024-01-15T01:35:05;40.40;;;26.33;;
33413;SDS011;60055;41.884;12.534;2024-01-15T01:37:31;36.38;;;25.23;;
33413;SDS011;60055;41.884;12.534;2024-01-15T01:39:58;37.78;;;24.92;;
33413;SDS011;60055;41.884;12.534;2024-01-15T01:42:23;41.65;;;26.23;;
33413;SDS011;60055;41.884;12.534;2024-01-15T01:44:49;39.00;;;25.77;;
33413;SDS011;60055;41.884;12.534;2024-01-15T01:47:14;41.25;;;26.58;;
33413;SDS011;60055;41.884;12.534;2024-01-15T01:49:40;35.22;;;25.17;;
33413;SDS011;60055;41.884;12.534;2024-01-15T01:52:07;38.75;;;26.48;;
33413;SDS011;60055;41.884;12.534;2024-01-15T01:54:34;40.70;;;26.75;;
33413;SDS011;60055;41.884;12.534;2024-01-15T01:57:00;39.35;;;26.00;;
33413;SDS011;60055;41.884;12.534;2024-01-15T01:59:28;36.63;;;25.23;;
33413;SDS011;60055;41.884;12.534;2024-01-15T02:01:55;41.13;;;26.33;;
33413;SDS011;60055;41.884;12.534;2024-01-15T02:04:22;39.70;;;26.02;;
33413;SDS011;60055;41.884;12.534;2024-01-15T02:06:49;41.45;;;26.20;;
33413;SDS011;60055;41.884;12.534;2024-01-15T02:09:15;35.95;;;25.10;;
33413;SDS011;60055;41.884;12.534;2024-01-15T02:11:42;39.35;;;25.45;;
33413;SDS011;60055;41.884;12.534;2024-01-15T02:14:08;36.92;;;25.52;;
33413;SDS011;60055;41.884;12.534;2024-01-15T02:16:34;33.88;;;26.00;;
33413;SDS011;60055;41.884;12.534;2024-01-15T02:19:00;39.10;;;25.60;;
33413;SDS011;60055;41.884;12.534;2024-01-15T02:21:25;36.35;;;25.27;;
33413;SDS011;60055;41.884;12.534;2024-01-15T02:23:53;40.10;;;26.00;;
33413;SDS011;60055;41.884;12.534;2024-01-15T02:26:21;35.42;;;24.90;;
33413;SDS011;60055;41.884;12.534;2024-01-15T02:28:48;38.40;;;24.83;;
33413;SDS011;60055;41.884;12.534;2024-01-15T02:31:15;37.40;;;26.42;;
33413;SDS011;60055;41.884;12.534;2024-01-15T02:33:41;37.58;;;26.17;;
33413;SDS011;60055;41.884;12.534;2024-01-15T02:36:07;35.53;;;25.92;;
33413;SDS011;60055;41.884;12.534;2024-01-15T02:38:33;37.53;;;24.73;;
33413;SDS011;60055;41.884;12.534;2024-01-15T02:40:59;39.05;;;26.00;;
33413;SDS011;60055;41.884;12.534;2024-01-15T02:43:24;39.75;;;25.27;;
33413;SDS011;60055;41.884;12.534;2024-01-15T02:45:50;35.88;;;25.50;;
33413;SDS011;60055;41.884;12.534;2024-01-15T02:48:16;32.47;;;23.45;;
33413;SDS011;60055;41.884;12.534;2024-01-15T02:50:57;40.10;;;24.17;;
33413;SDS011;60055;41.884;12.534;2024-01-15T02:53:23;37.65;;;23.73;;
33413;SDS011;60055;41.884;12.534;2024-01-15T02:55:49;33.92;;;23.60;;
33413;SDS011;60055;41.884;12.534;2024-01-15T02:58:14;30.52;;;23.00;;
33413;SDS011;60055;41.884;12.534;2024-01-15T03:00:40;35.50;;;22.95;;
33413;SDS011;60055;41.884;12.534;2024-01-15T03:03:05;30.92;;;22.50;;
33413;SDS011;60055;41.884;12.534;2024-01-15T03:05:31;35.08;;;22.50;;
33413;SDS011;60055;41.884;12.534;2024-01-15T03:07:57;31.35;;;21.88;;
33413;SDS011;60055;41.884;12.534;2024-01-15T03:10:22;35.65;;;22.83;;
33413;SDS011;60055;41.884;12.534;2024-01-15T03:12:48;32.35;;;20.98;;
33413;SDS011;60055;41.884;12.534;2024-01-15T03:15:14;30.23;;;20.67;;
33413;SDS011;60055;41.884;12.534;2024-01-15T03:17:41;31.75;;;20.88;;
33413;SDS011;60055;41.884;12.534;2024-01-15T03:20:08;29.75;;;19.75;;
33413;SDS011;60055;41.884;12.534;2024-01-15T03:22:34;31.25;;;20.85;;
33413;SDS011;60055;41.884;12.534;2024-01-15T03:24:59;30.02;;;19.83;;
33413;SDS011;60055;41.884;12.534;2024-01-15T03:27:25;29.10;;;19.48;;
33413;SDS011;60055;41.884;12.534;2024-01-15T03:29:51;27.80;;;18.52;;
33413;SDS011;60055;41.884;12.534;2024-01-15T03:32:16;28.10;;;17.98;;
33413;SDS011;60055;41.884;12.534;2024-01-15T03:34:42;28.98;;;18.08;;
33413;SDS011;60055;41.884;12.534;2024-01-15T03:37:08;26.75;;;17.42;;
33413;SDS011;60055;41.884;12.534;2024-01-15T03:39:33;23.25;;;16.02;;
33413;SDS011;60055;41.884;12.534;2024-01-15T03:41:59;29.35;;;18.10;;
33413;SDS011;60055;41.884;12.534;2024-01-15T03:44:24;23.25;;;16.23;;
33413;SDS011;60055;41.884;12.534;2024-01-15T03:46:50;23.55;;;15.90;;
33413;SDS011;60055;41.884;12.534;2024-01-15T03:49:16;23.95;;;15.77;;
33413;SDS011;60055;41.884;12.534;2024-01-15T03:51:41;20.90;;;14.63;;
33413;SDS011;60055;41.884;12.534;2024-01-15T03:54:09;21.38;;;14.23;;
33413;SDS011;60055;41.884;12.534;2024-01-15T03:56:35;20.77;;;13.73;;
33413;SDS011;60055;41.884;12.534;2024-01-15T03:59:00;22.83;;;14.55;;
33413;SDS011;60055;41.884;12.534;2024-01-15T04:01:26;21.13;;;12.80;;
33413;SDS011;60055;41.884;12.534;2024-01-15T04:03:51;22.88;;;14.80;;
33413;SDS011;60055;41.884;12.534;2024-01-15T04:06:20;23.13;;;15.52;;
33413;SDS011;60055;41.884;12.534;2024-01-15T04:08:46;23.20;;;15.13;;
33413;SDS011;60055;41.884;12.534;2024-01-15T04:11:11;21.92;;;14.68;;
33413;SDS011;60055;41.884;12.534;2024-01-15T04:13:37;20.13;;;14.05;;
33413;SDS011;60055;41.884;12.534;2024-01-15T04:16:02;21.48;;;15.02;;
33413;SDS011;60055;41.884;12.534;2024-01-15T04:18:28;23.10;;;14.60;;
33413;SDS011;60055;41.884;12.534;2024-01-15T04:20:54;20.73;;;14.82;;
33413;SDS011;60055;41.884;12.534;2024-01-15T04:23:20;22.75;;;14.40;;
33413;SDS011;60055;41.884;12.534;2024-01-15T04:25:46;22.55;;;14.80;;
33413;SDS011;60055;41.884;12.534;2024-01-15T04:28:19;22.17;;;13.40;;
33413;SDS011;60055;41.884;12.534;2024-01-15T04:30:44;20.27;;;14.52;;
33413;SDS011;60055;41.884;12.534;2024-01-15T04:33:10;21.92;;;14.13;;
33413;SDS011;60055;41.884;12.534;2024-01-15T04:35:35;20.52;;;13.45;;
33413;SDS011;60055;41.884;12.534;2024-01-15T04:38:02;20.10;;;12.93;;
33413;SDS011;60055;41.884;12.534;2024-01-15T04:40:28;17.10;;;11.95;;
33413;SDS011;60055;41.884;12.534;2024-01-15T04:42:54;16.92;;;11.68;;
33413;SDS011;60055;41.884;12.534;2024-01-15T04:45:22;16.13;;;11.48;;
33413;SDS011;60055;41.884;12.534;2024-01-15T04:47:57;20.08;;;11.90;;
33413;SDS011;60055;41.884;12.534;2024-01-15T04:50:23;17.38;;;11.45;;
33413;SDS011;60055;41.884;12.534;2024-01-15T04:53:08;19.60;;;12.02;;
33413;SDS011;60055;41.884;12.534;2024-01-15T04:55:37;16.73;;;10.65;;
33413;SDS011;60055;41.884;12.534;2024-01-15T04:58:05;18.83;;;11.48;;
33413;SDS011;60055;41.884;12.534;2024-01-15T05:00:31;18.02;;;11.38;;
33413;SDS011;60055;41.884;12.534;2024-01-15T05:02:56;16.52;;;10.98;;
33413;SDS011;60055;41.884;12.534;2024-01-15T05:05:22;13.82;;;10.13;;
33413;SDS011;60055;41.884;12.534;2024-01-15T05:07:51;18.88;;;10.50;;
33413;SDS011;60055;41.884;12.534;2024-01-15T05:10:16;17.25;;;9.70;;
33413;SDS011;60055;41.884;12.534;2024-01-15T05:12:42;14.90;;;9.60;;
33413;SDS011;60055;41.884;12.534;2024-01-15T05:15:07;14.15;;;9.77;;
33413;SDS011;60055;41.884;12.534;2024-01-15T05:17:38;13.70;;;9.40;;
33413;SDS011;60055;41.884;12.534;2024-01-15T05:20:04;17.13;;;9.35;;
33413;SDS011;60055;41.884;12.534;2024-01-15T05:22:34;16.92;;;10.13;;
33413;SDS011;60055;41.884;12.534;2024-01-15T05:25:09;12.95;;;9.60;;
33413;SDS011;60055;41.884;12.534;2024-01-15T05:27:37;15.30;;;9.73;;
33413;SDS011;60055;41.884;12.534;2024-01-15T05:30:03;16.85;;;9.98;;
33413;SDS011;60055;41.884;12.534;2024-01-15T05:32:29;16.45;;;10.15;;
33413;SDS011;60055;41.884;12.534;2024-01-15T05:35:04;17.50;;;10.80;;
33413;SDS011;60055;41.884;12.534;2024-01-15T05:37:51;16.42;;;10.82;;
33413;SDS011;60055;41.884;12.534;2024-01-15T05:40:40;19.00;;;11.32;;
33413;SDS011;60055;41.884;12.534;2024-01-15T05:43:08;15.70;;;10.73;;
33413;SDS011;60055;41.884;12.534;2024-01-15T05:45:34;15.27;;;9.93;;
33413;SDS011;60055;41.884;12.534;2024-01-15T05:48:03;15.75;;;10.65;;
33413;SDS011;60055;41.884;12.534;2024-01-15T05:50:38;15.60;;;9.43;;
33413;SDS011;60055;41.884;12.534;2024-01-15T05:53:07;16.48;;;9.40;;
33413;SDS011;60055;41.884;12.534;2024-01-15T05:55:47;14.82;;;9.77;;
33413;SDS011;60055;41.884;12.534;2024-01-15T05:58:21;15.70;;;9.75;;
33413;SDS011;60055;41.884;12.534;2024-01-15T06:03:38;16.48;;;10.32;;
33413;SDS011;60055;41.884;12.534;2024-01-15T06:06:03;13.93;;;9.60;;
33413;SDS011;60055;41.884;12.534;2024-01-15T06:11:51;16.80;;;10.68;;
33413;SDS011;60055;41.884;12.534;2024-01-15T06:15:09;17.45;;;10.35;;
33413;SDS011;60055;41.884;12.534;2024-01-15T06:18:10;20.33;;;9.82;;
33413;SDS011;60055;41.884;12.534;2024-01-15T06:20:47;23.85;;;10.43;;
33413;SDS011;60055;41.884;12.534;2024-01-15T06:23:13;21.20;;;9.30;;
33413;SDS011;60055;41.884;12.534;2024-01-15T06:25:56;22.23;;;10.27;;
33413;SDS011;60055;41.884;12.534;2024-01-15T06:28:40;18.25;;;9.32;;
33413;SDS011;60055;41.884;12.534;2024-01-15T06:31:16;17.40;;;8.52;;
33413;SDS011;60055;41.884;12.534;2024-01-15T06:34:07;18.50;;;8.90;;
33413;SDS011;60055;41.884;12.534;2024-01-15T06:37:21;14.73;;;8.07;;
33413;SDS011;60055;41.884;12.534;2024-01-15T06:39:33;15.50;;;8.00;;
33413;SDS011;60055;41.884;12.534;2024-01-15T06:42:17;13.75;;;8.20;;
33413;SDS011;60055;41.884;12.534;2024-01-15T06:45:11;20.10;;;9.77;;
33413;SDS011;60055;41.884;12.534;2024-01-15T06:47:37;21.15;;;12.90;;
33413;SDS011;60055;41.884;12.534;2024-01-15T06:50:02;22.27;;;12.45;;
33413;SDS011;60055;41.884;12.534;2024-01-15T06:52:29;20.92;;;10.48;;
33413;SDS011;60055;41.884;12.534;2024-01-15T06:54:55;19.10;;;9.93;;
33413;SDS011;60055;41.884;12.534;2024-01-15T06:57:20;18.45;;;9.05;;
33413;SDS011;60055;41.884;12.534;2024-01-15T06:59:46;18.33;;;8.50;;
33413;SDS011;60055;41.884;12.534;2024-01-15T07:02:11;13.77;;;7.78;;
33413;SDS011;60055;41.884;12.534;2024-01-15T07:04:37;19.65;;;7.63;;
33413;SDS011;60055;41.884;12.534;2024-01-15T07:07:02;18.40;;;7.07;;
33413;SDS011;60055;41.884;12.534;2024-01-15T07:09:28;15.05;;;6.85;;
33413;SDS011;60055;41.884;12.534;2024-01-15T07:11:53;19.20;;;7.45;;
33413;SDS011;60055;41.884;12.534;2024-01-15T07:14:22;24.42;;;7.18;;
33413;SDS011;60055;41.884;12.534;2024-01-15T07:16:47;21.90;;;6.43;;
33413;SDS011;60055;41.884;12.534;2024-01-15T07:19:12;14.98;;;6.32;;
33413;SDS011;60055;41.884;12.534;2024-01-15T07:21:38;16.02;;;6.07;;
33413;SDS011;60055;41.884;12.534;2024-01-15T07:24:05;16.90;;;6.10;;
33413;SDS011;60055;41.884;12.534;2024-01-15T07:26:30;17.67;;;6.43;;
33413;SDS011;60055;41.884;12.534;2024-01-15T07:28:56;18.98;;;7.70;;
33413;SDS011;60055;41.884;12.534;2024-01-15T07:31:21;17.05;;;6.78;;
33413;SDS011;60055;41.884;12.534;2024-01-15T07:33:47;18.58;;;6.38;;
33413;SDS011;60055;41.884;12.534;2024-01-15T07:36:13;21.83;;;7.00;;
33413;SDS011;60055;41.884;12.534;2024-01-15T07:38:41;16.00;;;6.07;;
33413;SDS011;60055;41.884;12.534;2024-01-15T07:41:06;17.67;;;6.28;;
33413;SDS011;60055;41.884;12.534;2024-01-15T07:43:33;24.58;;;6.90;;
33413;SDS011;60055;41.884;12.534;2024-01-15T07:45:58;20.88;;;7.05;;
33413;SDS011;60055;41.884;12.534;2024-01-15T07:48:27;21.17;;;7.13;;
33413;SDS011;60055;41.884;12.534;2024-01-15T07:50:52;20.42;;;7.10;;
33413;SDS011;60055;41.884;12.534;2024-01-15T07:53:18;21.42;;;8.48;;
33413;SDS011;60055;41.884;12.534;2024-01-15T07:55:44;21.08;;;7.57;;
33413;SDS011;60055;41.884;12.534;2024-01-15T07:58:11;22.80;;;7.55;;
33413;SDS011;60055;41.884;12.534;2024-01-15T08:00:36;20.73;;;7.80;;
33413;SDS011;60055;41.884;12.534;2024-01-15T08:03:02;20.20;;;7.68;;
33413;SDS011;60055;41.884;12.534;2024-01-15T08:05:27;21.25;;;7.63;;
33413;SDS011;60055;41.884;12.534;2024-01-15T08:07:53;19.55;;;7.13;;
33413;SDS011;60055;41.884;12.534;2024-01-15T08:10:18;19.23;;;6.60;;
33413;SDS011;60055;41.884;12.534;2024-01-15T08:12:44;21.90;;;6.82;;
33413;SDS011;60055;41.884;12.534;2024-01-15T08:15:09;17.88;;;7.10;;
33413;SDS011;60055;41.884;12.534;2024-01-15T08:17:35;15.40;;;6.45;;
33413;SDS011;60055;41.884;12.534;2024-01-15T08:20:00;21.10;;;6.72;;
33413;SDS011;60055;41.884;12.534;2024-01-15T08:22:26;20.40;;;6.72;;
33413;SDS011;60055;41.884;12.534;2024-01-15T08:24:51;17.35;;;6.50;;
33413;SDS011;60055;41.884;12.534;2024-01-15T08:27:18;21.25;;;6.55;;
33413;SDS011;60055;41.884;12.534;2024-01-15T08:29:45;20.52;;;6.38;;
33413;SDS011;60055;41.884;12.534;2024-01-15T08:32:10;21.90;;;6.95;;
33413;SDS011;60055;41.884;12.534;2024-01-15T08:34:39;21.55;;;6.75;;
33413;SDS011;60055;41.884;12.534;2024-01-15T08:37:04;19.02;;;6.28;;
33413;SDS011;60055;41.884;12.534;2024-01-15T08:39:30;21.75;;;6.75;;
33413;SDS011;60055;41.884;12.534;2024-01-15T08:41:55;24.88;;;8.02;;
33413;SDS011;60055;41.884;12.534;2024-01-15T08:44:21;22.88;;;7.97;;
33413;SDS011;60055;41.884;12.534;2024-01-15T08:46:46;21.17;;;7.70;;
33413;SDS011;60055;41.884;12.534;2024-01-15T08:49:11;24.95;;;7.25;;
33413;SDS011;60055;41.884;12.534;2024-01-15T08:51:37;20.70;;;7.00;;
33413;SDS011;60055;41.884;12.534;2024-01-15T08:54:04;19.85;;;7.50;;
33413;SDS011;60055;41.884;12.534;2024-01-15T08:56:29;26.75;;;7.07;;
33413;SDS011;60055;41.884;12.534;2024-01-15T08:58:55;24.42;;;7.28;;
33413;SDS011;60055;41.884;12.534;2024-01-15T09:01:20;24.77;;;7.18;;
33413;SDS011;60055;41.884;12.534;2024-01-15T09:03:46;23.20;;;7.32;;
33413;SDS011;60055;41.884;12.534;2024-01-15T09:06:13;19.02;;;6.65;;
33413;SDS011;60055;41.884;12.534;2024-01-15T09:08:38;25.92;;;7.15;;
33413;SDS011;60055;41.884;12.534;2024-01-15T09:11:04;19.45;;;6.85;;
33413;SDS011;60055;41.884;12.534;2024-01-15T09:13:29;27.83;;;7.32;;
33413;SDS011;60055;41.884;12.534;2024-01-15T09:15:55;28.27;;;7.68;;
33413;SDS011;60055;41.884;12.534;2024-01-15T09:18:21;25.90;;;7.90;;
33413;SDS011;60055;41.884;12.534;2024-01-15T09:20:46;23.25;;;8.10;;
33413;SDS011;60055;41.884;12.534;2024-01-15T09:23:12;27.35;;;8.80;;
33413;SDS011;60055;41.884;12.534;2024-01-15T09:25:37;23.92;;;7.45;;
33413;SDS011;60055;41.884;12.534;2024-01-15T09:28:03;26.73;;;7.93;;
33413;SDS011;60055;41.884;12.534;2024-01-15T09:30:28;28.73;;;8.63;;
33413;SDS011;60055;41.884;12.534;2024-01-15T09:32:54;27.15;;;8.35;;
33413;SDS011;60055;41.884;12.534;2024-01-15T09:35:19;27.58;;;9.38;;
33413;SDS011;60055;41.884;12.534;2024-01-15T09:37:45;26.77;;;8.73;;
33413;SDS011;60055;41.884;12.534;2024-01-15T09:40:12;31.38;;;8.02;;
33413;SDS011;60055;41.884;12.534;2024-01-15T09:42:41;26.30;;;8.38;;
33413;SDS011;60055;41.884;12.534;2024-01-15T09:45:08;30.17;;;8.50;;
33413;SDS011;60055;41.884;12.534;2024-01-15T09:47:35;29.85;;;8.48;;
33413;SDS011;60055;41.884;12.534;2024-01-15T09:50:02;23.50;;;7.55;;
33413;SDS011;60055;41.884;12.534;2024-01-15T09:52:28;25.10;;;8.07;;
33413;SDS011;60055;41.884;12.534;2024-01-15T09:54:56;31.13;;;8.27;;
33413;SDS011;60055;41.884;12.534;2024-01-15T09:57:22;25.70;;;7.85;;
33413;SDS011;60055;41.884;12.534;2024-01-15T09:59:48;23.65;;;7.45;;
33413;SDS011;60055;41.884;12.534;2024-01-15T10:02:14;26.98;;;8.13;;
33413;SDS011;60055;41.884;12.534;2024-01-15T10:04:43;28.48;;;8.63;;
33413;SDS011;60055;41.884;12.534;2024-01-15T10:07:09;29.77;;;9.48;;
33413;SDS011;60055;41.884;12.534;2024-01-15T10:09:41;31.55;;;8.50;;
33413;SDS011;60055;41.884;12.534;2024-01-15T10:12:06;28.08;;;7.45;;
33413;SDS011;60055;41.884;12.534;2024-01-15T10:14:33;29.02;;;7.70;;
33413;SDS011;60055;41.884;12.534;2024-01-15T10:16:59;27.80;;;8.00;;
33413;SDS011;60055;41.884;12.534;2024-01-15T10:19:25;34.60;;;8.13;;
33413;SDS011;60055;41.884;12.534;2024-01-15T10:21:50;25.60;;;8.30;;
33413;SDS011;60055;41.884;12.534;2024-01-15T10:24:15;26.60;;;7.28;;
33413;SDS011;60055;41.884;12.534;2024-01-15T10:26:42;26.95;;;8.20;;
33413;SDS011;60055;41.884;12.534;2024-01-15T10:29:08;25.90;;;7.03;;
33413;SDS011;60055;41.884;12.534;2024-01-15T10:31:33;27.55;;;7.38;;
33413;SDS011;60055;41.884;12.534;2024-01-15T10:34:09;31.48;;;8.70;;
33413;SDS011;60055;41.884;12.534;2024-01-15T10:36:38;33.58;;;10.13;;
33413;SDS011;60055;41.884;12.534;2024-01-15T10:39:05;36.03;;;10.38;;
33413;SDS011;60055;41.884;12.534;2024-01-15T10:41:32;37.03;;;9.48;;
33413;SDS011;60055;41.884;12.534;2024-01-15T10:43:58;35.30;;;10.32;;
33413;SDS011;60055;41.884;12.534;2024-01-15T10:46:23;29.52;;;10.40;;
33413;SDS011;60055;41.884;12.534;2024-01-15T10:48:50;31.88;;;11.65;;
33413;SDS011;60055;41.884;12.534;2024-01-15T10:51:15;33.10;;;8.93;;
33413;SDS011;60055;41.884;12.534;2024-01-15T10:53:41;28.23;;;7.80;;
33413;SDS011;60055;41.884;12.534;2024-01-15T10:56:07;29.17;;;8.68;;
33413;SDS011;60055;41.884;12.534;2024-01-15T10:58:35;30.88;;;9.00;;
33413;SDS011;60055;41.884;12.534;2024-01-15T11:01:03;31.73;;;8.55;;
33413;SDS011;60055;41.884;12.534;2024-01-15T11:03:29;33.28;;;8.43;;
33413;SDS011;60055;41.884;12.534;2024-01-15T11:05:55;30.00;;;8.20;;
33413;SDS011;60055;41.884;12.534;2024-01-15T11:08:20;27.95;;;8.18;;
33413;SDS011;60055;41.884;12.534;2024-01-15T11:10:47;31.25;;;8.18;;
33413;SDS011;60055;41.884;12.534;2024-01-15T11:16:03;23.90;;;7.70;;
33413;SDS011;60055;41.884;12.534;2024-01-15T11:18:39;23.95;;;7.43;;
33413;SDS011;60055;41.884;12.534;2024-01-15T11:31:59;33.63;;;9.75;;
33413;SDS011;60055;41.884;12.534;2024-01-15T11:37:22;33.20;;;9.05;;
33413;SDS011;60055;41.884;12.534;2024-01-15T11:39:50;29.55;;;9.15;;
33413;SDS011;60055;41.884;12.534;2024-01-15T11:42:16;31.48;;;9.00;;
33413;SDS011;60055;41.884;12.534;2024-01-15T11:44:43;39.15;;;12.30;;
33413;SDS011;60055;41.884;12.534;2024-01-15T11:47:10;44.88;;;20.73;;
33413;SDS011;60055;41.884;12.534;2024-01-15T11:52:23;34.90;;;8.32;;
33413;SDS011;60055;41.884;12.534;2024-01-15T11:57:33;28.63;;;6.32;;
33413;SDS011;60055;41.884;12.534;2024-01-15T12:02:31;45.03;;;19.30;;
33413;SDS011;60055;41.884;12.534;2024-01-15T12:04:57;36.25;;;7.43;;
33413;SDS011;60055;41.884;12.534;2024-01-15T12:07:23;35.03;;;7.15;;
33413;SDS011;60055;41.884;12.534;2024-01-15T12:09:48;26.05;;;6.25;;
33413;SDS011;60055;41.884;12.534;2024-01-15T12:12:16;33.53;;;5.78;;
33413;SDS011;60055;41.884;12.534;2024-01-15T12:14:50;29.63;;;5.30;;
33413;SDS011;60055;41.884;12.534;2024-01-15T12:17:15;38.72;;;6.43;;
33413;SDS011;60055;41.884;12.534;2024-01-15T12:19:41;28.48;;;5.97;;
33413;SDS011;60055;41.884;12.534;2024-01-15T12:22:08;32.88;;;6.20;;
33413;SDS011;60055;41.884;12.534;2024-01-15T12:24:34;28.30;;;5.78;;
33413;SDS011;60055;41.884;12.534;2024-01-15T12:27:00;31.02;;;6.03;;
33413;SDS011;60055;41.884;12.534;2024-01-15T12:29:26;31.05;;;5.97;;
33413;SDS011;60055;41.884;12.534;2024-01-15T12:31:52;22.55;;;6.78;;
33413;SDS011;60055;41.884;12.534;2024-01-15T12:34:18;39.63;;;10.93;;
33413;SDS011;60055;41.884;12.534;2024-01-15T12:36:46;31.25;;;13.63;;
33413;SDS011;60055;41.884;12.534;2024-01-15T12:39:12;31.88;;;8.90;;
33413;SDS011;60055;41.884;12.534;2024-01-15T12:41:38;28.77;;;6.30;;
33413;SDS011;60055;41.884;12.534;2024-01-15T12:44:04;31.75;;;6.00;;
33413;SDS011;60055;41.884;12.534;2024-01-15T12:46:30;30.63;;;5.85;;
33413;SDS011;60055;41.884;12.534;2024-01-15T12:48:56;27.48;;;5.78;;
33413;SDS011;60055;41.884;12.534;2024-01-15T12:51:25;27.42;;;5.50;;
33413;SDS011;60055;41.884;12.534;2024-01-15T12:53:51;30.38;;;5.63;;
33413;SDS011;60055;41.884;12.534;2024-01-15T12:56:17;26.80;;;6.15;;
33413;SDS011;60055;41.884;12.534;2024-01-15T12:58:42;27.83;;;5.78;;
33413;SDS011;60055;41.884;12.534;2024-01-15T13:01:08;26.55;;;5.70;;
33413;SDS011;60055;41.884;12.534;2024-01-15T13:03:33;24.88;;;5.50;;
33413;SDS011;60055;41.884;12.534;2024-01-15T13:05:58;32.00;;;6.32;;
33413;SDS011;60055;41.884;12.534;2024-01-15T13:08:24;27.75;;;5.18;;
33413;SDS011;60055;41.884;12.534;2024-01-15T13:10:52;33.92;;;6.07;;
33413;SDS011;60055;41.884;12.534;2024-01-15T13:13:21;20.88;;;5.63;;
33413;SDS011;60055;41.884;12.534;2024-01-15T13:15:46;31.40;;;5.82;;
33413;SDS011;60055;41.884;12.534;2024-01-15T13:18:11;35.05;;;6.38;;
33413;SDS011;60055;41.884;12.534;2024-01-15T13:20:37;32.35;;;6.15;;
33413;SDS011;60055;41.884;12.534;2024-01-15T13:23:03;28.58;;;6.65;;
33413;SDS011;60055;41.884;12.534;2024-01-15T13:25:29;39.63;;;6.60;;
33413;SDS011;60055;41.884;12.534;2024-01-15T13:27:54;23.58;;;5.82;;
33413;SDS011;60055;41.884;12.534;2024-01-15T13:30:20;28.20;;;6.38;;
33413;SDS011;60055;41.884;12.534;2024-01-15T13:32:45;34.45;;;5.97;;
33413;SDS011;60055;41.884;12.534;2024-01-15T13:35:11;29.25;;;5.88;;
33413;SDS011;60055;41.884;12.534;2024-01-15T13:37:38;35.15;;;6.53;;
33413;SDS011;60055;41.884;12.534;2024-01-15T13:40:06;33.65;;;6.75;;
33413;SDS011;60055;41.884;12.534;2024-01-15T13:42:34;30.75;;;5.57;;
33413;SDS011;60055;41.884;12.534;2024-01-15T13:45:03;30.55;;;5.93;;
33413;SDS011;60055;41.884;12.534;2024-01-15T13:47:31;29.63;;;5.50;;
33413;SDS011;60055;41.884;12.534;2024-01-15T13:49:56;29.30;;;5.80;;
33413;SDS011;60055;41.884;12.534;2024-01-15T13:52:22;31.55;;;5.43;;
33413;SDS011;60055;41.884;12.534;2024-01-15T13:54:47;27.85;;;5.35;;
33413;SDS011;60055;41.884;12.534;2024-01-15T13:57:13;31.38;;;5.70;;
33413;SDS011;60055;41.884;12.534;2024-01-15T13:59:38;33.03;;;6.00;;
33413;SDS011;60055;41.884;12.534;2024-01-15T14:02:03;34.25;;;5.97;;
33413;SDS011;60055;41.884;12.534;2024-01-15T14:04:30;27.58;;;5.75;;
33413;SDS011;60055;41.884;12.534;2024-01-15T14:06:55;32.25;;;6.15;;
33413;SDS011;60055;41.884;12.534;2024-01-15T14:09:21;28.10;;;6.13;;
33413;SDS011;60055;41.884;12.534;2024-01-15T14:11:47;28.95;;;5.70;;
33413;SDS011;60055;41.884;12.534;2024-01-15T14:14:12;30.60;;;6.28;;
33413;SDS011;60055;41.884;12.534;2024-01-15T14:16:38;29.92;;;5.90;;
33413;SDS011;60055;41.884;12.534;2024-01-15T14:19:04;35.17;;;7.03;;
33413;SDS011;60055;41.884;12.534;2024-01-15T14:21:31;32.25;;;6.30;;
33413;SDS011;60055;41.884;12.534;2024-01-15T14:23:56;31.08;;;6.25;;
33413;SDS011;60055;41.884;12.534;2024-01-15T14:26:22;39.67;;;6.55;;
33413;SDS011;60055;41.884;12.534;2024-01-15T14:28:47;28.85;;;5.47;;
33413;SDS011;60055;41.884;12.534;2024-01-15T14:31:13;37.40;;;6.88;;
33413;SDS011;60055;41.884;12.534;2024-01-15T14:33:39;23.30;;;5.53;;
33413;SDS011;60055;41.884;12.534;2024-01-15T14:36:04;32.72;;;6.20;;
33413;SDS011;60055;41.884;12.534;2024-01-15T14:38:30;31.27;;;5.75;;
33413;SDS011;60055;41.884;12.534;2024-01-15T14:40:55;33.97;;;6.55;;
33413;SDS011;60055;41.884;12.534;2024-01-15T14:43:21;30.33;;;5.45;;
33413;SDS011;60055;41.884;12.534;2024-01-15T14:45:47;29.13;;;5.30;;